sensor_id;sensor_type;location;lat;lon;timestamp;P1;durP1;ratioP1;P2;durP2;ratioP2
12585;SDS011;6358;50.760;0.282;2022-11-10T00:00:03;4.77;;;2.37;;
12585;SDS011;6358;50.760;0.282;2022-11-10T00:02:31;4.80;;;2.07;;
12585;SDS011;6358;50.760;0.282;2022-11-10T00:04:57;5.07;;;2.57;;
12585;SDS011;6358;50.760;0.282;2022-11-10T00:07:23;4.00;;;2.23;;
12585;SDS011;6358;50.760;0.282;2022-11-10T00:09:50;2.57;;;1.73;;
12585;SDS011;6358;50.760;0.282;2022-11-10T00:12:17;4.43;;;2.30;;
12585;SDS011;6358;50.760;0.282;2022-11-10T00:14:43;3.07;;;2.10;;
12585;SDS011;6358;50.760;0.282;2022-11-10T00:17:28;3.90;;;2.13;;
12585;SDS011;6358;50.760;0.282;2022-11-10T00:19:54;4.10;;;2.00;;
12585;SDS011;6358;50.760;0.282;2022-11-10T00:22:20;3.90;;;2.10;;
12585;SDS011;6358;50.760;0.282;2022-11-10T00:24:46;3.37;;;1.73;;
12585;SDS011;6358;50.760;0.282;2022-11-10T00:27:12;2.70;;;1.80;;
12585;SDS011;6358;50.760;0.282;2022-11-10T00:29:41;3.27;;;1.97;;
12585;SDS011;6358;50.760;0.282;2022-11-10T00:32:07;3.90;;;2.30;;
12585;SDS011;6358;50.760;0.282;2022-11-10T00:34:33;3.47;;;2.10;;
12585;SDS011;6358;50.760;0.282;2022-11-10T00:37:00;4.10;;;1.87;;
12585;SDS011;6358;50.760;0.282;2022-11-10T00:39:26;4.33;;;1.80;;
12585;SDS011;6358;50.760;0.282;2022-11-10T00:41:52;3.43;;;1.70;;
12585;SDS011;6358;50.760;0.282;2022-11-10T00:44:18;5.57;;;1.90;;
12585;SDS011;6358;50.760;0.282;2022-11-10T00:46:44;4.60;;;1.90;;
12585;SDS011;6358;50.760;0.282;2022-11-10T00:49:10;3.77;;;1.70;;
12585;SDS011;6358;50.760;0.282;2022-11-10T00:51:36;2.70;;;1.67;;
12585;SDS011;6358;50.760;0.282;2022-11-10T00:54:03;3.30;;;1.70;;
12585;SDS011;6358;50.760;0.282;2022-11-10T00:56:29;3.67;;;2.00;;
12585;SDS011;6358;50.760;0.282;2022-11-10T00:58:55;2.80;;;1.77;;
12585;SDS011;6358;50.760;0.282;2022-11-10T01:01:22;2.10;;;1.50;;
12585;SDS011;6358;50.760;0.282;2022-11-10T01:03:49;3.13;;;1.60;;
12585;SDS011;6358;50.760;0.282;2022-11-10T01:06:16;3.33;;;1.63;;
12585;SDS011;6358;50.760;0.282;2022-11-10T01:08:42;2.73;;;1.67;;
12585;SDS011;6358;50.760;0.282;2022-11-10T01:11:11;2.37;;;1.70;;
12585;SDS011;6358;50.760;0.282;2022-11-10T01:13:37;3.20;;;1.50;;
12585;SDS011;6358;50.760;0.282;2022-11-10T01:16:04;2.90;;;1.60;;
12585;SDS011;6358;50.760;0.282;2022-11-10T01:18:30;3.70;;;1.60;;
12585;SDS011;6358;50.760;0.282;2022-11-10T01:20:56;2.10;;;1.20;;
12585;SDS011;6358;50.760;0.282;2022-11-10T01:23:23;2.50;;;1.50;;
12585;SDS011;6358;50.760;0.282;2022-11-10T01:25:49;3.47;;;1.70;;
12585;SDS011;6358;50.760;0.282;2022-11-10T01:28:15;3.33;;;1.50;;
12585;SDS011;6358;50.760;0.282;2022-11-10T01:30:41;3.30;;;1.60;;
12585;SDS011;6358;50.760;0.282;2022-11-10T01:33:07;4.43;;;1.70;;
12585;SDS011;6358;50.760;0.282;2022-11-10T01:35:33;3.03;;;1.60;;
12585;SDS011;6358;50.760;0.282;2022-11-10T01:37:59;2.23;;;1.50;;
12585;SDS011;6358;50.760;0.282;2022-11-10T01:40:25;2.53;;;1.67;;
12585;SDS011;6358;50.760;0.282;2022-11-10T01:42:53;2.83;;;1.40;;
12585;SDS011;6358;50.760;0.282;2022-11-10T01:47:52;4.43;;;1.67;;
12585;SDS011;6358;50.760;0.282;2022-11-10T01:50:19;3.13;;;1.37;;
12585;SDS011;6358;50.760;0.282;2022-11-10T01:52:47;2.87;;;1.43;;
12585;SDS011;6358;50.760;0.282;2022-11-10T01:55:14;2.47;;;1.53;;
12585;SDS011;6358;50.760;0.282;2022-11-10T01:57:41;3.00;;;1.50;;
12585;SDS011;6358;50.760;0.282;2022-11-10T02:00:07;2.03;;;1.50;;
12585;SDS011;6358;50.760;0.282;2022-11-10T02:02:35;1.83;;;1.20;;
12585;SDS011;6358;50.760;0.282;2022-11-10T02:05:03;4.10;;;1.80;;
12585;SDS011;6358;50.760;0.282;2022-11-10T02:07:29;4.43;;;1.60;;
12585;SDS011;6358;50.760;0.282;2022-11-10T02:09:56;3.40;;;1.30;;
12585;SDS011;6358;50.760;0.282;2022-11-10T02:12:22;1.60;;;1.13;;
12585;SDS011;6358;50.760;0.282;2022-11-10T02:15:04;2.60;;;1.50;;
12585;SDS011;6358;50.760;0.282;2022-11-10T02:17:30;2.83;;;1.43;;
12585;SDS011;6358;50.760;0.282;2022-11-10T02:19:57;2.43;;;1.50;;
12585;SDS011;6358;50.760;0.282;2022-11-10T02:22:23;2.97;;;1.50;;
12585;SDS011;6358;50.760;0.282;2022-11-10T02:24:49;3.07;;;1.40;;
12585;SDS011;6358;50.760;0.282;2022-11-10T02:27:15;2.60;;;1.20;;
12585;SDS011;6358;50.760;0.282;2022-11-10T02:29:42;2.50;;;1.30;;
12585;SDS011;6358;50.760;0.282;2022-11-10T02:32:08;2.80;;;1.33;;
12585;SDS011;6358;50.760;0.282;2022-11-10T02:34:34;2.27;;;1.17;;
12585;SDS011;6358;50.760;0.282;2022-11-10T02:37:00;2.20;;;1.20;;
12585;SDS011;6358;50.760;0.282;2022-11-10T02:39:26;2.40;;;1.20;;
12585;SDS011;6358;50.760;0.282;2022-11-10T02:41:52;2.43;;;1.20;;
12585;SDS011;6358;50.760;0.282;2022-11-10T02:44:18;2.57;;;1.30;;
12585;SDS011;6358;50.760;0.282;2022-11-10T02:46:44;2.13;;;1.10;;
12585;SDS011;6358;50.760;0.282;2022-11-10T02:49:10;2.13;;;1.23;;
12585;SDS011;6358;50.760;0.282;2022-11-10T02:51:36;2.57;;;1.20;;
12585;SDS011;6358;50.760;0.282;2022-11-10T02:54:02;3.00;;;1.60;;
12585;SDS011;6358;50.760;0.282;2022-11-10T02:56:30;2.37;;;1.40;;
12585;SDS011;6358;50.760;0.282;2022-11-10T02:58:56;2.57;;;1.50;;
12585;SDS011;6358;50.760;0.282;2022-11-10T03:01:22;2.57;;;1.17;;
12585;SDS011;6358;50.760;0.282;2022-11-10T03:03:48;3.43;;;1.20;;
12585;SDS011;6358;50.760;0.282;2022-11-10T03:06:14;1.97;;;1.30;;
12585;SDS011;6358;50.760;0.282;2022-11-10T03:08:40;2.00;;;1.30;;
12585;SDS011;6358;50.760;0.282;2022-11-10T03:11:08;1.90;;;1.13;;
12585;SDS011;6358;50.760;0.282;2022-11-10T03:13:34;1.73;;;1.10;;
12585;SDS011;6358;50.760;0.282;2022-11-10T03:16:00;2.83;;;1.20;;
12585;SDS011;6358;50.760;0.282;2022-11-10T03:18:26;2.67;;;1.30;;
12585;SDS011;6358;50.760;0.282;2022-11-10T03:20:52;2.53;;;1.23;;
12585;SDS011;6358;50.760;0.282;2022-11-10T03:23:18;1.40;;;1.17;;
12585;SDS011;6358;50.760;0.282;2022-11-10T03:25:45;2.87;;;1.20;;
12585;SDS011;6358;50.760;0.282;2022-11-10T03:28:11;1.40;;;1.00;;
12585;SDS011;6358;50.760;0.282;2022-11-10T03:30:37;3.07;;;1.43;;
12585;SDS011;6358;50.760;0.282;2022-11-10T03:33:03;2.93;;;1.43;;
12585;SDS011;6358;50.760;0.282;2022-11-10T03:35:30;2.00;;;1.20;;
12585;SDS011;6358;50.760;0.282;2022-11-10T03:37:56;2.30;;;1.20;;
12585;SDS011;6358;50.760;0.282;2022-11-10T03:40:22;2.43;;;1.13;;
12585;SDS011;6358;50.760;0.282;2022-11-10T03:42:48;2.33;;;1.00;;
12585;SDS011;6358;50.760;0.282;2022-11-10T03:45:14;2.17;;;1.27;;
12585;SDS011;6358;50.760;0.282;2022-11-10T03:47:43;1.97;;;1.17;;
12585;SDS011;6358;50.760;0.282;2022-11-10T03:50:10;2.00;;;1.03;;
12585;SDS011;6358;50.760;0.282;2022-11-10T03:52:41;2.83;;;1.17;;
12585;SDS011;6358;50.760;0.282;2022-11-10T03:55:08;1.83;;;1.20;;
12585;SDS011;6358;50.760;0.282;2022-11-10T03:57:35;2.37;;;1.03;;
12585;SDS011;6358;50.760;0.282;2022-11-10T04:00:01;2.23;;;1.03;;
12585;SDS011;6358;50.760;0.282;2022-11-10T04:02:27;2.43;;;1.20;;
12585;SDS011;6358;50.760;0.282;2022-11-10T04:04:53;2.90;;;1.10;;
12585;SDS011;6358;50.760;0.282;2022-11-10T04:07:38;2.70;;;0.93;;
12585;SDS011;6358;50.760;0.282;2022-11-10T04:10:23;3.17;;;1.00;;
12585;SDS011;6358;50.760;0.282;2022-11-10T04:12:49;2.90;;;1.20;;
12585;SDS011;6358;50.760;0.282;2022-11-10T04:15:34;2.67;;;1.17;;
12585;SDS011;6358;50.760;0.282;2022-11-10T04:18:06;2.53;;;1.07;;
12585;SDS011;6358;50.760;0.282;2022-11-10T04:23:16;1.43;;;0.90;;
12585;SDS011;6358;50.760;0.282;2022-11-10T04:25:52;1.97;;;1.27;;
12585;SDS011;6358;50.760;0.282;2022-11-10T04:28:37;1.73;;;1.00;;
12585;SDS011;6358;50.760;0.282;2022-11-10T04:31:04;1.57;;;1.03;;
12585;SDS011;6358;50.760;0.282;2022-11-10T04:33:30;2.80;;;1.20;;
12585;SDS011;6358;50.760;0.282;2022-11-10T04:35:56;2.10;;;1.10;;
12585;SDS011;6358;50.760;0.282;2022-11-10T04:38:22;2.47;;;1.00;;
12585;SDS011;6358;50.760;0.282;2022-11-10T04:40:48;2.47;;;1.03;;
12585;SDS011;6358;50.760;0.282;2022-11-10T04:43:14;1.97;;;0.93;;
12585;SDS011;6358;50.760;0.282;2022-11-10T04:45:41;1.70;;;1.10;;
12585;SDS011;6358;50.760;0.282;2022-11-10T04:48:07;2.93;;;1.20;;
12585;SDS011;6358;50.760;0.282;2022-11-10T04:50:34;3.07;;;1.40;;
12585;SDS011;6358;50.760;0.282;2022-11-10T04:53:00;1.67;;;0.90;;
12585;SDS011;6358;50.760;0.282;2022-11-10T04:55:26;2.30;;;1.37;;
12585;SDS011;6358;50.760;0.282;2022-11-10T04:57:52;2.33;;;1.07;;
12585;SDS011;6358;50.760;0.282;2022-11-10T05:00:18;2.37;;;1.20;;
12585;SDS011;6358;50.760;0.282;2022-11-10T05:02:44;2.80;;;1.20;;
12585;SDS011;6358;50.760;0.282;2022-11-10T05:05:10;2.03;;;1.10;;
12585;SDS011;6358;50.760;0.282;2022-11-10T05:07:36;2.10;;;1.10;;
12585;SDS011;6358;50.760;0.282;2022-11-10T05:10:03;2.27;;;1.20;;
12585;SDS011;6358;50.760;0.282;2022-11-10T05:12:29;1.80;;;1.00;;
12585;SDS011;6358;50.760;0.282;2022-11-10T05:14:55;2.23;;;1.10;;
12585;SDS011;6358;50.760;0.282;2022-11-10T05:17:21;2.23;;;1.10;;
12585;SDS011;6358;50.760;0.282;2022-11-10T05:19:47;1.87;;;0.90;;
12585;SDS011;6358;50.760;0.282;2022-11-10T05:22:13;1.43;;;0.73;;
12585;SDS011;6358;50.760;0.282;2022-11-10T05:24:40;3.00;;;1.33;;
12585;SDS011;6358;50.760;0.282;2022-11-10T05:27:06;2.47;;;1.20;;
12585;SDS011;6358;50.760;0.282;2022-11-10T05:29:32;3.50;;;1.27;;
12585;SDS011;6358;50.760;0.282;2022-11-10T05:31:58;3.77;;;1.30;;
12585;SDS011;6358;50.760;0.282;2022-11-10T05:34:25;2.07;;;1.20;;
12585;SDS011;6358;50.760;0.282;2022-11-10T05:36:51;1.63;;;1.00;;
12585;SDS011;6358;50.760;0.282;2022-11-10T05:39:17;2.90;;;1.07;;
12585;SDS011;6358;50.760;0.282;2022-11-10T05:41:43;2.63;;;1.13;;
12585;SDS011;6358;50.760;0.282;2022-11-10T05:44:09;1.43;;;0.97;;
12585;SDS011;6358;50.760;0.282;2022-11-10T05:46:35;2.07;;;1.00;;
12585;SDS011;6358;50.760;0.282;2022-11-10T05:49:01;1.80;;;0.90;;
12585;SDS011;6358;50.760;0.282;2022-11-10T05:51:27;2.40;;;1.00;;
12585;SDS011;6358;50.760;0.282;2022-11-10T05:53:53;2.27;;;1.20;;
12585;SDS011;6358;50.760;0.282;2022-11-10T05:56:19;2.17;;;1.20;;
12585;SDS011;6358;50.760;0.282;2022-11-10T05:58:45;3.37;;;1.10;;
12585;SDS011;6358;50.760;0.282;2022-11-10T06:01:11;3.47;;;1.27;;
12585;SDS011;6358;50.760;0.282;2022-11-10T06:03:37;2.47;;;1.07;;
12585;SDS011;6358;50.760;0.282;2022-11-10T06:06:04;1.40;;;0.77;;
12585;SDS011;6358;50.760;0.282;2022-11-10T06:08:30;2.57;;;1.10;;
12585;SDS011;6358;50.760;0.282;2022-11-10T06:10:56;2.37;;;1.30;;
12585;SDS011;6358;50.760;0.282;2022-11-10T06:13:22;3.00;;;1.20;;
12585;SDS011;6358;50.760;0.282;2022-11-10T06:15:49;1.63;;;1.10;;
12585;SDS011;6358;50.760;0.282;2022-11-10T06:18:15;4.00;;;1.27;;
12585;SDS011;6358;50.760;0.282;2022-11-10T06:20:41;2.67;;;1.20;;
12585;SDS011;6358;50.760;0.282;2022-11-10T06:23:11;2.00;;;0.87;;
12585;SDS011;6358;50.760;0.282;2022-11-10T06:25:37;1.97;;;0.90;;
12585;SDS011;6358;50.760;0.282;2022-11-10T06:28:04;2.00;;;1.10;;
12585;SDS011;6358;50.760;0.282;2022-11-10T06:30:31;2.60;;;1.00;;
12585;SDS011;6358;50.760;0.282;2022-11-10T06:32:58;1.87;;;1.00;;
12585;SDS011;6358;50.760;0.282;2022-11-10T06:35:24;2.57;;;1.27;;
12585;SDS011;6358;50.760;0.282;2022-11-10T06:37:57;2.70;;;1.13;;
12585;SDS011;6358;50.760;0.282;2022-11-10T06:40:24;2.23;;;1.00;;
12585;SDS011;6358;50.760;0.282;2022-11-10T06:42:50;3.87;;;1.20;;
12585;SDS011;6358;50.760;0.282;2022-11-10T06:45:16;2.03;;;0.80;;
12585;SDS011;6358;50.760;0.282;2022-11-10T06:47:42;3.77;;;1.30;;
12585;SDS011;6358;50.760;0.282;2022-11-10T06:50:08;1.93;;;1.10;;
12585;SDS011;6358;50.760;0.282;2022-11-10T06:52:34;1.67;;;0.90;;
12585;SDS011;6358;50.760;0.282;2022-11-10T06:55:00;2.63;;;0.93;;
12585;SDS011;6358;50.760;0.282;2022-11-10T06:57:27;2.70;;;1.20;;
12585;SDS011;6358;50.760;0.282;2022-11-10T06:59:53;2.87;;;0.97;;
12585;SDS011;6358;50.760;0.282;2022-11-10T07:02:19;3.13;;;1.10;;
12585;SDS011;6358;50.760;0.282;2022-11-10T07:04:45;4.03;;;1.00;;
12585;SDS011;6358;50.760;0.282;2022-11-10T07:07:14;3.40;;;1.20;;
12585;SDS011;6358;50.760;0.282;2022-11-10T07:09:41;1.47;;;0.93;;
12585;SDS011;6358;50.760;0.282;2022-11-10T07:12:07;1.30;;;0.80;;
12585;SDS011;6358;50.760;0.282;2022-11-10T07:14:33;2.83;;;1.27;;
12585;SDS011;6358;50.760;0.282;2022-11-10T07:16:59;1.97;;;0.87;;
12585;SDS011;6358;50.760;0.282;2022-11-10T07:19:25;3.13;;;1.50;;
12585;SDS011;6358;50.760;0.282;2022-11-10T07:21:51;2.23;;;0.93;;
12585;SDS011;6358;50.760;0.282;2022-11-10T07:24:17;3.00;;;1.10;;
12585;SDS011;6358;50.760;0.282;2022-11-10T07:26:43;4.00;;;1.40;;
12585;SDS011;6358;50.760;0.282;2022-11-10T07:29:09;3.07;;;1.20;;
12585;SDS011;6358;50.760;0.282;2022-11-10T07:31:35;3.27;;;1.40;;
12585;SDS011;6358;50.760;0.282;2022-11-10T07:34:01;2.00;;;1.20;;
12585;SDS011;6358;50.760;0.282;2022-11-10T07:36:27;3.47;;;1.20;;
12585;SDS011;6358;50.760;0.282;2022-11-10T07:38:54;1.57;;;1.00;;
12585;SDS011;6358;50.760;0.282;2022-11-10T07:41:20;3.97;;;1.17;;
12585;SDS011;6358;50.760;0.282;2022-11-10T07:43:46;7.60;;;1.30;;
12585;SDS011;6358;50.760;0.282;2022-11-10T07:46:12;3.93;;;1.17;;
12585;SDS011;6358;50.760;0.282;2022-11-10T07:48:38;5.67;;;1.50;;
12585;SDS011;6358;50.760;0.282;2022-11-10T07:51:04;2.47;;;1.30;;
12585;SDS011;6358;50.760;0.282;2022-11-10T07:53:30;2.20;;;1.07;;
12585;SDS011;6358;50.760;0.282;2022-11-10T07:55:57;4.23;;;1.10;;
12585;SDS011;6358;50.760;0.282;2022-11-10T07:58:23;3.77;;;1.13;;
12585;SDS011;6358;50.760;0.282;2022-11-10T08:00:49;2.37;;;1.00;;
12585;SDS011;6358;50.760;0.282;2022-11-10T08:03:17;1.97;;;1.03;;
12585;SDS011;6358;50.760;0.282;2022-11-10T08:05:43;4.30;;;1.30;;
12585;SDS011;6358;50.760;0.282;2022-11-10T08:08:10;1.80;;;1.10;;
12585;SDS011;6358;50.760;0.282;2022-11-10T08:10:36;5.47;;;1.43;;
12585;SDS011;6358;50.760;0.282;2022-11-10T08:13:04;3.97;;;1.20;;
12585;SDS011;6358;50.760;0.282;2022-11-10T08:15:30;2.73;;;1.20;;
12585;SDS011;6358;50.760;0.282;2022-11-10T08:17:57;4.90;;;1.40;;
12585;SDS011;6358;50.760;0.282;2022-11-10T08:20:24;4.23;;;1.20;;
12585;SDS011;6358;50.760;0.282;2022-11-10T08:22:55;2.40;;;0.90;;
12585;SDS011;6358;50.760;0.282;2022-11-10T08:25:22;4.53;;;1.00;;
12585;SDS011;6358;50.760;0.282;2022-11-10T08:27:48;4.00;;;1.93;;
12585;SDS011;6358;50.760;0.282;2022-11-10T08:30:20;3.90;;;1.83;;
12585;SDS011;6358;50.760;0.282;2022-11-10T08:32:46;5.83;;;3.47;;
12585;SDS011;6358;50.760;0.282;2022-11-10T08:35:13;9.27;;;6.37;;
12585;SDS011;6358;50.760;0.282;2022-11-10T08:37:39;8.23;;;6.73;;
12585;SDS011;6358;50.760;0.282;2022-11-10T08:40:05;9.97;;;7.77;;
12585;SDS011;6358;50.760;0.282;2022-11-10T08:42:31;13.73;;;9.60;;
12585;SDS011;6358;50.760;0.282;2022-11-10T08:44:57;10.77;;;9.60;;
12585;SDS011;6358;50.760;0.282;2022-11-10T08:47:23;11.33;;;9.33;;
12585;SDS011;6358;50.760;0.282;2022-11-10T08:49:49;10.80;;;9.70;;
12585;SDS011;6358;50.760;0.282;2022-11-10T08:52:15;12.30;;;10.20;;
12585;SDS011;6358;50.760;0.282;2022-11-10T08:54:41;14.47;;;10.20;;
12585;SDS011;6358;50.760;0.282;2022-11-10T08:57:07;12.07;;;10.60;;
12585;SDS011;6358;50.760;0.282;2022-11-10T08:59:33;12.73;;;10.47;;
12585;SDS011;6358;50.760;0.282;2022-11-10T09:01:59;12.90;;;10.30;;
12585;SDS011;6358;50.760;0.282;2022-11-10T09:04:26;12.87;;;11.10;;
12585;SDS011;6358;50.760;0.282;2022-11-10T09:06:52;11.23;;;10.13;;
12585;SDS011;6358;50.760;0.282;2022-11-10T09:09:22;12.00;;;10.67;;
12585;SDS011;6358;50.760;0.282;2022-11-10T09:11:48;13.53;;;10.43;;
12585;SDS011;6358;50.760;0.282;2022-11-10T09:14:14;11.50;;;10.10;;
12585;SDS011;6358;50.760;0.282;2022-11-10T09:16:40;12.07;;;10.23;;
12585;SDS011;6358;50.760;0.282;2022-11-10T09:19:06;12.20;;;9.90;;
12585;SDS011;6358;50.760;0.282;2022-11-10T09:21:32;10.63;;;9.57;;
12585;SDS011;6358;50.760;0.282;2022-11-10T09:23:58;11.10;;;9.80;;
12585;SDS011;6358;50.760;0.282;2022-11-10T09:26:25;11.67;;;9.67;;
12585;SDS011;6358;50.760;0.282;2022-11-10T09:28:51;10.23;;;9.13;;
12585;SDS011;6358;50.760;0.282;2022-11-10T09:31:17;10.60;;;9.50;;
12585;SDS011;6358;50.760;0.282;2022-11-10T09:33:43;10.60;;;9.50;;
12585;SDS011;6358;50.760;0.282;2022-11-10T09:36:09;11.47;;;8.83;;
12585;SDS011;6358;50.760;0.282;2022-11-10T09:38:35;10.93;;;8.20;;
12585;SDS011;6358;50.760;0.282;2022-11-10T09:41:02;10.37;;;8.53;;
12585;SDS011;6358;50.760;0.282;2022-11-10T09:43:31;9.57;;;7.83;;
12585;SDS011;6358;50.760;0.282;2022-11-10T09:45:59;12.37;;;8.30;;
12585;SDS011;6358;50.760;0.282;2022-11-10T09:48:28;9.53;;;8.50;;
12585;SDS011;6358;50.760;0.282;2022-11-10T09:51:06;9.20;;;7.80;;
12585;SDS011;6358;50.760;0.282;2022-11-10T09:53:43;9.57;;;7.70;;
12585;SDS011;6358;50.760;0.282;2022-11-10T09:56:13;11.73;;;7.33;;
12585;SDS011;6358;50.760;0.282;2022-11-10T09:58:42;9.43;;;7.27;;
12585;SDS011;6358;50.760;0.282;2022-11-10T10:01:12;9.73;;;7.03;;
12585;SDS011;6358;50.760;0.282;2022-11-10T10:03:43;12.67;;;7.00;;
12585;SDS011;6358;50.760;0.282;2022-11-10T10:06:11;13.27;;;6.97;;
12585;SDS011;6358;50.760;0.282;2022-11-10T10:08:57;17.70;;;6.87;;
12585;SDS011;6358;50.760;0.282;2022-11-10T10:16:38;10.73;;;6.40;;
12585;SDS011;6358;50.760;0.282;2022-11-10T10:24:08;11.47;;;5.77;;
12585;SDS011;6358;50.760;0.282;2022-11-10T10:26:40;15.30;;;6.40;;
12585;SDS011;6358;50.760;0.282;2022-11-10T10:29:12;10.20;;;5.50;;
12585;SDS011;6358;50.760;0.282;2022-11-10T10:31:39;7.33;;;5.13;;
12585;SDS011;6358;50.760;0.282;2022-11-10T10:34:13;12.93;;;5.60;;
12585;SDS011;6358;50.760;0.282;2022-11-10T10:36:40;11.40;;;5.63;;
12585;SDS011;6358;50.760;0.282;2022-11-10T10:41:37;9.93;;;5.00;;
12585;SDS011;6358;50.760;0.282;2022-11-10T10:44:13;12.00;;;5.27;;
12585;SDS011;6358;50.760;0.282;2022-11-10T10:51:41;11.00;;;4.97;;
12585;SDS011;6358;50.760;0.282;2022-11-10T10:54:27;15.40;;;5.20;;
12585;SDS011;6358;50.760;0.282;2022-11-10T10:59:38;9.47;;;4.60;;
12585;SDS011;6358;50.760;0.282;2022-11-10T11:02:11;9.63;;;3.97;;
12585;SDS011;6358;50.760;0.282;2022-11-10T11:04:45;14.57;;;4.60;;
12585;SDS011;6358;50.760;0.282;2022-11-10T11:07:20;9.20;;;4.20;;
12585;SDS011;6358;50.760;0.282;2022-11-10T11:09:46;9.67;;;4.07;;
12585;SDS011;6358;50.760;0.282;2022-11-10T11:12:24;10.27;;;4.37;;
12585;SDS011;6358;50.760;0.282;2022-11-10T11:14:51;6.87;;;3.70;;
12585;SDS011;6358;50.760;0.282;2022-11-10T11:17:19;10.33;;;4.40;;
12585;SDS011;6358;50.760;0.282;2022-11-10T11:19:45;6.87;;;3.20;;
12585;SDS011;6358;50.760;0.282;2022-11-10T11:37:26;11.17;;;3.90;;
12585;SDS011;6358;50.760;0.282;2022-11-10T11:45:25;7.93;;;3.20;;
12585;SDS011;6358;50.760;0.282;2022-11-10T11:50:42;11.73;;;3.27;;
12585;SDS011;6358;50.760;0.282;2022-11-10T12:08:25;7.57;;;2.73;;
12585;SDS011;6358;50.760;0.282;2022-11-10T12:11:03;8.77;;;2.90;;
12585;SDS011;6358;50.760;0.282;2022-11-10T12:13:34;9.07;;;3.03;;
12585;SDS011;6358;50.760;0.282;2022-11-10T12:16:04;5.90;;;2.40;;
12585;SDS011;6358;50.760;0.282;2022-11-10T12:18:34;6.47;;;2.70;;
12585;SDS011;6358;50.760;0.282;2022-11-10T12:21:17;30.33;;;3.97;;
12585;SDS011;6358;50.760;0.282;2022-11-10T12:28:39;23.70;;;3.67;;
12585;SDS011;6358;50.760;0.282;2022-11-10T12:31:12;17.20;;;3.13;;
12585;SDS011;6358;50.760;0.282;2022-11-10T12:33:44;9.83;;;2.80;;
12585;SDS011;6358;50.760;0.282;2022-11-10T12:36:13;10.80;;;3.03;;
12585;SDS011;6358;50.760;0.282;2022-11-10T12:38:50;11.63;;;2.37;;
12585;SDS011;6358;50.760;0.282;2022-11-10T12:41:18;12.50;;;2.77;;
12585;SDS011;6358;50.760;0.282;2022-11-10T12:46:30;7.10;;;2.20;;
12585;SDS011;6358;50.760;0.282;2022-11-10T12:51:35;5.97;;;2.60;;
12585;SDS011;6358;50.760;0.282;2022-11-10T12:54:04;6.80;;;2.40;;
12585;SDS011;6358;50.760;0.282;2022-11-10T12:59:27;6.43;;;2.03;;
12585;SDS011;6358;50.760;0.282;2022-11-10T13:01:54;6.87;;;2.60;;
12585;SDS011;6358;50.760;0.282;2022-11-10T13:04:22;4.17;;;2.27;;
12585;SDS011;6358;50.760;0.282;2022-11-10T13:06:52;5.97;;;2.20;;
12585;SDS011;6358;50.760;0.282;2022-11-10T13:09:30;5.40;;;2.20;;
12585;SDS011;6358;50.760;0.282;2022-11-10T13:14:29;7.00;;;2.53;;
12585;SDS011;6358;50.760;0.282;2022-11-10T13:16:55;8.97;;;2.30;;
12585;SDS011;6358;50.760;0.282;2022-11-10T13:26:53;5.93;;;1.93;;
12585;SDS011;6358;50.760;0.282;2022-11-10T13:29:51;4.40;;;2.43;;
12585;SDS011;6358;50.760;0.282;2022-11-10T13:34:50;3.60;;;1.93;;
12585;SDS011;6358;50.760;0.282;2022-11-10T13:42:43;5.20;;;2.10;;
12585;SDS011;6358;50.760;0.282;2022-11-10T13:45:28;5.03;;;1.90;;
12585;SDS011;6358;50.760;0.282;2022-11-10T13:50:31;3.63;;;1.80;;
12585;SDS011;6358;50.760;0.282;2022-11-10T13:53:07;4.50;;;1.87;;
12585;SDS011;6358;50.760;0.282;2022-11-10T13:58:23;6.63;;;2.07;;
12585;SDS011;6358;50.760;0.282;2022-11-10T14:00:52;6.57;;;2.10;;
12585;SDS011;6358;50.760;0.282;2022-11-10T14:06:14;4.10;;;1.80;;
12585;SDS011;6358;50.760;0.282;2022-11-10T14:11:35;4.97;;;1.90;;
12585;SDS011;6358;50.760;0.282;2022-11-10T14:14:09;3.30;;;1.63;;
12585;SDS011;6358;50.760;0.282;2022-11-10T14:16:38;5.07;;;2.27;;
12585;SDS011;6358;50.760;0.282;2022-11-10T14:21:56;4.37;;;1.50;;
12585;SDS011;6358;50.760;0.282;2022-11-10T14:26:52;3.13;;;1.57;;
12585;SDS011;6358;50.760;0.282;2022-11-10T14:31:45;5.70;;;1.83;;
12585;SDS011;6358;50.760;0.282;2022-11-10T14:34:12;5.57;;;1.73;;
12585;SDS011;6358;50.760;0.282;2022-11-10T14:36:40;3.80;;;1.70;;
12585;SDS011;6358;50.760;0.282;2022-11-10T14:39:14;4.77;;;1.90;;
12585;SDS011;6358;50.760;0.282;2022-11-10T14:41:44;3.90;;;1.67;;
12585;SDS011;6358;50.760;0.282;2022-11-10T14:44:12;4.60;;;2.03;;
12585;SDS011;6358;50.760;0.282;2022-11-10T14:46:39;3.67;;;1.70;;
12585;SDS011;6358;50.760;0.282;2022-11-10T14:49:07;3.23;;;1.60;;
12585;SDS011;6358;50.760;0.282;2022-11-10T14:51:34;3.83;;;1.80;;
12585;SDS011;6358;50.760;0.282;2022-11-10T14:54:00;5.13;;;1.90;;
12585;SDS011;6358;50.760;0.282;2022-11-10T14:56:30;3.13;;;1.70;;
12585;SDS011;6358;50.760;0.282;2022-11-10T14:59:03;3.33;;;1.67;;
12585;SDS011;6358;50.760;0.282;2022-11-10T15:01:34;3.37;;;1.60;;
12585;SDS011;6358;50.760;0.282;2022-11-10T15:04:03;5.87;;;1.83;;
12585;SDS011;6358;50.760;0.282;2022-11-10T15:06:30;2.83;;;1.40;;
12585;SDS011;6358;50.760;0.282;2022-11-10T15:08:56;3.13;;;1.47;;
12585;SDS011;6358;50.760;0.282;2022-11-10T15:11:39;4.40;;;1.57;;
12585;SDS011;6358;50.760;0.282;2022-11-10T15:17:03;3.67;;;1.60;;
12585;SDS011;6358;50.760;0.282;2022-11-10T15:22:03;5.33;;;1.90;;
12585;SDS011;6358;50.760;0.282;2022-11-10T15:24:29;3.37;;;1.60;;
12585;SDS011;6358;50.760;0.282;2022-11-10T15:26:56;3.50;;;1.87;;
12585;SDS011;6358;50.760;0.282;2022-11-10T15:29:22;7.50;;;2.30;;
12585;SDS011;6358;50.760;0.282;2022-11-10T15:31:49;6.43;;;2.00;;
12585;SDS011;6358;50.760;0.282;2022-11-10T15:34:28;5.37;;;1.97;;
12585;SDS011;6358;50.760;0.282;2022-11-10T15:39:39;5.03;;;2.07;;
12585;SDS011;6358;50.760;0.282;2022-11-10T15:42:12;7.50;;;2.23;;
12585;SDS011;6358;50.760;0.282;2022-11-10T15:44:39;8.63;;;2.40;;
12585;SDS011;6358;50.760;0.282;2022-11-10T15:47:08;6.20;;;1.97;;
12585;SDS011;6358;50.760;0.282;2022-11-10T15:49:35;10.67;;;2.20;;
12585;SDS011;6358;50.760;0.282;2022-11-10T15:52:10;6.10;;;2.10;;
12585;SDS011;6358;50.760;0.282;2022-11-10T15:54:37;6.80;;;2.03;;
12585;SDS011;6358;50.760;0.282;2022-11-10T15:57:08;5.37;;;2.10;;
12585;SDS011;6358;50.760;0.282;2022-11-10T15:59:34;3.67;;;1.83;;
12585;SDS011;6358;50.760;0.282;2022-11-10T16:02:00;7.33;;;1.80;;
12585;SDS011;6358;50.760;0.282;2022-11-10T16:04:26;6.73;;;1.87;;
12585;SDS011;6358;50.760;0.282;2022-11-10T16:06:53;4.47;;;1.67;;
12585;SDS011;6358;50.760;0.282;2022-11-10T16:09:20;4.07;;;1.80;;
12585;SDS011;6358;50.760;0.282;2022-11-10T16:11:47;4.93;;;1.70;;
12585;SDS011;6358;50.760;0.282;2022-11-10T16:14:13;5.40;;;2.03;;
12585;SDS011;6358;50.760;0.282;2022-11-10T16:16:40;4.90;;;2.00;;
12585;SDS011;6358;50.760;0.282;2022-11-10T16:19:10;4.40;;;1.60;;
12585;SDS011;6358;50.760;0.282;2022-11-10T16:21:36;5.03;;;1.80;;
12585;SDS011;6358;50.760;0.282;2022-11-10T16:24:03;3.70;;;1.80;;
12585;SDS011;6358;50.760;0.282;2022-11-10T16:26:29;4.03;;;1.60;;
12585;SDS011;6358;50.760;0.282;2022-11-10T16:28:55;4.57;;;1.70;;
12585;SDS011;6358;50.760;0.282;2022-11-10T16:31:21;4.07;;;1.80;;
12585;SDS011;6358;50.760;0.282;2022-11-10T16:33:48;4.70;;;1.90;;
12585;SDS011;6358;50.760;0.282;2022-11-10T16:38:41;3.57;;;1.57;;
12585;SDS011;6358;50.760;0.282;2022-11-10T16:41:10;6.10;;;1.83;;
12585;SDS011;6358;50.760;0.282;2022-11-10T16:43:37;2.93;;;1.70;;
12585;SDS011;6358;50.760;0.282;2022-11-10T16:46:04;6.67;;;1.70;;
12585;SDS011;6358;50.760;0.282;2022-11-10T16:48:31;3.80;;;1.93;;
12585;SDS011;6358;50.760;0.282;2022-11-10T16:50:58;5.67;;;1.90;;
12585;SDS011;6358;50.760;0.282;2022-11-10T16:53:29;8.30;;;2.30;;
12585;SDS011;6358;50.760;0.282;2022-11-10T16:55:56;5.07;;;1.73;;
12585;SDS011;6358;50.760;0.282;2022-11-10T16:58:25;8.30;;;2.20;;
12585;SDS011;6358;50.760;0.282;2022-11-10T17:00:52;6.67;;;2.37;;
12585;SDS011;6358;50.760;0.282;2022-11-10T17:03:29;5.37;;;2.23;;
12585;SDS011;6358;50.760;0.282;2022-11-10T17:05:56;14.13;;;3.33;;